Portada
METAR-TAF:

METAR-TAF

Aeroports :

Kochi, Índia

latitud: 10-09-07N, longitud: 76-24-07E, altitud: 9 m

Observació

L'informe es va fer fa 19 minuts, a les 03:00 UTC
Vent 3 kt del Est
Temperatura 26°C
Humitat 79%
Pressió 1013 hPa
Visibilitat: 3500 m
Escasses núvols a una alçada de 1500 ft
boirina

METAR: VOCI 010300Z 10003KT 3500 BR FEW015 26/22 Q1013 BECMG 4000 HZ

Hora: 08:49 (03:19 UTC)

Pronòstic

L'informe es va fer fa 1 hora i 19 minuts, a les 02:00 UTC
Pronòstic vàlid del 01 a les 03 UTC al 01 a les 12 UTC
Vent 5 kt del Est
Visibilitat: 3500 m
Escasses núvols a una alçada de 1500 ft
calitja
Evolucionant progressivament
l' 01 a les 04 UTC al 01 a les 05 UTC
Vent 5 kt del Sud-Oest
Visibilitat: 4500 m
calitja

TAF: VOCI 010200Z 0103/0112 10005KT 3500 HZ FEW015 BECMG 0104/0105 22005KT 4500 HZ

Observacions i pronòstics meteorològics de més de 4000 aeroports (METAR i TAF).

Les estacions disponibles són els punts grocs i vermells al mapa.

Posi el ratolí al punt desitjat per veure el nom de l'estació.

Feu clic per veure les observacions i els pronòstics meteorològics.

Per canviar el mapa: feu clic els botons verds amb una creu de color negre per apropar; al botó verd amb un guió per allunyar la imatge; o en les fletxes verdes per a mapes adjacents.


METAR-TAF: